Time;durP1;ratioP1;P1;durP2;ratioP2;P2;SDS_P1;SDS_P2;PMS_P1;PMS_P2;Temp;Humidity;BMP_temperature;BMP_pressure;BME280_temperature;BME280_humidity;BME280_pressure;Samples;Min_cycle;Max_cycle;Signal;HPM_P1;HPM_P2
2022/07/07 00:00:46;;;;;;;14.00;12.98;;;;;;;;;;5010279;28;20128;-72
2022/07/07 00:03:12;;;;;;;14.55;13.25;;;;;;;;;;5027735;28;20136;-72
2022/07/07 00:05:38;;;;;;;13.38;12.38;;;;;;;;;;5027361;28;20042;-73
2022/07/07 00:08:04;;;;;;;13.88;12.68;;;;;;;;;;5009892;28;20041;-72
2022/07/07 00:10:30;;;;;;;13.45;12.35;;;;;;;;;;5027231;28;20053;-73
2022/07/07 00:12:55;;;;;;;13.90;12.48;;;;;;;;;;5027527;28;20060;-71
2022/07/07 00:15:21;;;;;;;16.05;14.23;;;;;;;;;;5027277;28;20029;-72
2022/07/07 00:17:47;;;;;;;14.18;12.93;;;;;;;;;;5027757;28;20053;-73
2022/07/07 00:20:13;;;;;;;14.70;13.23;;;;;;;;;;5027993;28;20274;-72
2022/07/07 00:22:39;;;;;;;14.32;13.10;;;;;;;;;;5027702;28;20041;-72
2022/07/07 00:25:06;;;;;;;14.52;12.60;;;;;;;;;;5027878;28;20057;-72
2022/07/07 00:27:32;;;;;;;14.18;12.75;;;;;;;;;;5009661;28;20033;-73
2022/07/07 00:29:58;;;;;;;14.95;13.55;;;;;;;;;;5027787;28;20057;-72
2022/07/07 00:32:24;;;;;;;14.70;13.27;;;;;;;;;;4993876;28;20564;-72
2022/07/07 00:34:50;;;;;;;15.27;13.73;;;;;;;;;;5031408;28;20038;-72
2022/07/07 00:37:16;;;;;;;13.93;12.73;;;;;;;;;;5030920;28;20037;-73
2022/07/07 00:39:42;;;;;;;16.30;12.38;;;;;;;;;;5031293;28;20111;-73
2022/07/07 00:42:12;;;;;;;14.60;13.20;;;;;;;;;;5014282;28;20068;-72
2022/07/07 00:44:38;;;;;;;13.48;12.48;;;;;;;;;;5031633;28;20531;-73
2022/07/07 00:47:04;;;;;;;14.90;13.35;;;;;;;;;;5030890;28;20132;-72
2022/07/07 00:49:32;;;;;;;15.32;13.93;;;;;;;;;;5013179;28;20076;-73
2022/07/07 00:51:57;;;;;;;15.50;14.25;;;;;;;;;;5013279;28;20044;-72
2022/07/07 00:54:23;;;;;;;14.68;13.48;;;;;;;;;;5030650;28;20037;-72
2022/07/07 00:56:49;;;;;;;14.80;13.32;;;;;;;;;;5030876;28;20140;-71
2022/07/07 00:59:15;;;;;;;15.18;13.73;;;;;;;;;;5013254;28;20104;-73
2022/07/07 01:01:41;;;;;;;14.25;13.15;;;;;;;;;;5031812;28;20041;-72
2022/07/07 01:04:07;;;;;;;13.32;12.10;;;;;;;;;;5001544;28;20038;-72
2022/07/07 01:06:33;;;;;;;14.40;13.30;;;;;;;;;;5015086;28;20041;-72
2022/07/07 01:08:59;;;;;;;14.18;12.95;;;;;;;;;;5030968;28;20049;-74
2022/07/07 01:11:25;;;;;;;13.85;12.73;;;;;;;;;;5030796;28;20045;-72
2022/07/07 01:13:51;;;;;;;16.98;13.40;;;;;;;;;;5012948;28;20401;-72
2022/07/07 01:16:17;;;;;;;15.27;12.85;;;;;;;;;;5030652;28;20045;-73
2022/07/07 01:18:44;;;;;;;14.82;13.20;;;;;;;;;;5030277;28;20102;-72
2022/07/07 01:21:11;;;;;;;14.00;12.60;;;;;;;;;;5012463;28;20510;-72
2022/07/07 01:23:37;;;;;;;14.32;12.77;;;;;;;;;;5012396;28;20045;-72
2022/07/07 01:26:03;;;;;;;14.23;13.02;;;;;;;;;;5030635;28;20053;-71
2022/07/07 01:28:29;;;;;;;15.20;13.65;;;;;;;;;;5029981;28;20080;-72
2022/07/07 01:30:58;;;;;;;13.77;12.48;;;;;;;;;;5012659;28;20057;-72
2022/07/07 01:33:23;;;;;;;14.10;13.00;;;;;;;;;;5029728;28;20034;-73
2022/07/07 01:35:49;;;;;;;13.88;12.68;;;;;;;;;;5030095;28;20118;-74
2022/07/07 01:38:15;;;;;;;15.35;13.90;;;;;;;;;;5030075;28;20505;-72
2022/07/07 01:40:41;;;;;;;15.38;13.27;;;;;;;;;;5029888;28;20390;-72
2022/07/07 01:43:07;;;;;;;15.95;13.93;;;;;;;;;;5029938;28;20161;-72
2022/07/07 01:45:32;;;;;;;14.82;13.43;;;;;;;;;;5029635;28;20509;-73
2022/07/07 01:47:58;;;;;;;15.15;13.50;;;;;;;;;;5012392;28;20037;-72
2022/07/07 01:50:24;;;;;;;14.90;13.35;;;;;;;;;;5029522;28;20111;-74
2022/07/07 01:52:50;;;;;;;15.18;13.50;;;;;;;;;;5029566;28;20048;-72
2022/07/07 01:55:16;;;;;;;13.23;12.00;;;;;;;;;;5029615;28;20123;-72
2022/07/07 01:57:42;;;;;;;14.35;13.05;;;;;;;;;;5029212;28;20077;-72
2022/07/07 02:00:09;;;;;;;13.82;12.70;;;;;;;;;;5029361;28;20037;-72
2022/07/07 02:02:35;;;;;;;13.63;12.43;;;;;;;;;;5028982;28;20049;-72
2022/07/07 02:05:01;;;;;;;14.90;13.30;;;;;;;;;;5029370;28;20049;-72
2022/07/07 02:07:27;;;;;;;15.65;14.05;;;;;;;;;;5028739;28;20060;-73
2022/07/07 02:09:53;;;;;;;14.30;13.07;;;;;;;;;;5029262;28;20084;-71
2022/07/07 02:12:18;;;;;;;14.65;13.25;;;;;;;;;;5029471;28;20053;-73
2022/07/07 02:14:44;;;;;;;14.60;13.10;;;;;;;;;;5011501;28;20041;-72
2022/07/07 02:17:10;;;;;;;13.50;12.20;;;;;;;;;;5011534;28;20049;-72
2022/07/07 02:19:36;;;;;;;14.23;12.70;;;;;;;;;;4994498;28;20042;-74
2022/07/07 02:22:02;;;;;;;13.65;11.98;;;;;;;;;;5029246;28;20037;-72
2022/07/07 02:24:28;;;;;;;13.45;12.07;;;;;;;;;;5028541;28;20045;-72
2022/07/07 02:26:54;;;;;;;13.98;12.73;;;;;;;;;;5028931;28;20627;-73
2022/07/07 02:29:20;;;;;;;12.98;11.68;;;;;;;;;;5028538;28;20080;-73
2022/07/07 02:31:46;;;;;;;13.52;12.02;;;;;;;;;;5028550;28;20084;-72
2022/07/07 02:34:12;;;;;;;12.88;11.77;;;;;;;;;;5013015;28;20037;-72
2022/07/07 02:36:38;;;;;;;13.65;12.25;;;;;;;;;;5011045;28;20513;-72
2022/07/07 02:39:04;;;;;;;13.30;11.63;;;;;;;;;;5010928;28;20099;-73
2022/07/07 02:41:30;;;;;;;14.05;11.88;;;;;;;;;;5028528;28;20115;-72
2022/07/07 02:43:56;;;;;;;12.07;11.02;;;;;;;;;;5028446;28;20052;-72
2022/07/07 02:46:22;;;;;;;13.07;12.07;;;;;;;;;;5028524;28;20041;-72
2022/07/07 02:48:48;;;;;;;13.05;11.90;;;;;;;;;;5028308;28;20044;-72
2022/07/07 02:51:14;;;;;;;13.13;11.80;;;;;;;;;;5028532;28;20544;-73
2022/07/07 02:53:40;;;;;;;12.80;11.48;;;;;;;;;;5028136;28;20045;-73
2022/07/07 02:56:06;;;;;;;12.50;11.30;;;;;;;;;;5027972;28;20041;-72
2022/07/07 02:58:32;;;;;;;13.10;11.90;;;;;;;;;;5010066;28;20034;-72
2022/07/07 03:00:57;;;;;;;12.40;11.20;;;;;;;;;;5028234;28;20041;-72
2022/07/07 03:03:23;;;;;;;12.23;10.95;;;;;;;;;;5028275;28;20044;-72
2022/07/07 03:05:49;;;;;;;16.35;11.32;;;;;;;;;;5028123;28;20136;-72
2022/07/07 03:08:15;;;;;;;17.73;11.07;;;;;;;;;;5028039;28;20103;-73
2022/07/07 03:10:41;;;;;;;12.25;11.15;;;;;;;;;;5029488;28;20614;-72
2022/07/07 03:13:07;;;;;;;14.07;11.43;;;;;;;;;;5029695;28;20042;-73
2022/07/07 03:15:33;;;;;;;11.75;10.68;;;;;;;;;;5011614;28;20045;-72
2022/07/07 03:17:59;;;;;;;12.30;11.15;;;;;;;;;;5029730;28;20033;-73
2022/07/07 03:20:25;;;;;;;12.90;11.20;;;;;;;;;;5029573;28;20095;-72
2022/07/07 03:22:51;;;;;;;12.40;11.40;;;;;;;;;;5029356;28;20513;-73
2022/07/07 03:25:17;;;;;;;11.07;10.18;;;;;;;;;;5029498;28;20119;-73
2022/07/07 03:27:42;;;;;;;12.57;11.00;;;;;;;;;;5011799;28;20045;-73
2022/07/07 03:30:09;;;;;;;11.98;10.88;;;;;;;;;;5029600;28;20572;-73
2022/07/07 03:32:35;;;;;;;10.63;9.73;;;;;;;;;;5029241;28;20041;-73
2022/07/07 03:35:01;;;;;;;12.57;11.38;;;;;;;;;;5012043;28;20046;-72
2022/07/07 03:37:32;;;;;;;11.68;10.68;;;;;;;;;;4979547;28;20048;-72
2022/07/07 03:39:58;;;;;;;11.90;10.75;;;;;;;;;;5029490;28;20048;-73
2022/07/07 03:42:23;;;;;;;16.67;11.80;;;;;;;;;;5029455;28;20413;-73
2022/07/07 03:44:49;;;;;;;12.45;11.15;;;;;;;;;;5029245;28;20038;-73
2022/07/07 03:47:15;;;;;;;11.00;9.90;;;;;;;;;;5029256;28;20068;-72
2022/07/07 03:49:41;;;;;;;10.90;9.90;;;;;;;;;;5028921;28;20057;-72
2022/07/07 03:52:08;;;;;;;11.30;10.30;;;;;;;;;;4995628;28;20042;-74
2022/07/07 03:54:34;;;;;;;13.75;9.88;;;;;;;;;;5029091;28;20049;-73
2022/07/07 03:57:00;;;;;;;11.55;10.65;;;;;;;;;;5029363;28;20042;-73
2022/07/07 03:59:26;;;;;;;11.85;10.32;;;;;;;;;;5030130;28;20078;-74
2022/07/07 04:01:52;;;;;;;10.48;9.48;;;;;;;;;;5029871;28;20053;-73
2022/07/07 04:04:18;;;;;;;11.48;9.82;;;;;;;;;;5034693;28;20037;-73
2022/07/07 04:06:43;;;;;;;10.30;9.45;;;;;;;;;;5038543;28;20164;-74
2022/07/07 04:09:09;;;;;;;13.23;9.70;;;;;;;;;;5020787;28;20509;-72
2022/07/07 04:11:35;;;;;;;9.98;9.07;;;;;;;;;;5032751;28;20052;-73
2022/07/07 04:14:01;;;;;;;10.48;9.57;;;;;;;;;;5032904;28;20128;-73
2022/07/07 04:16:29;;;;;;;11.13;10.10;;;;;;;;;;5015243;28;20053;-73
2022/07/07 04:18:55;;;;;;;9.73;8.80;;;;;;;;;;5015183;28;20037;-73
2022/07/07 04:21:21;;;;;;;10.15;9.15;;;;;;;;;;5032746;28;20045;-73
2022/07/07 04:23:47;;;;;;;9.80;9.02;;;;;;;;;;4998969;28;20471;-73
2022/07/07 04:26:13;;;;;;;10.98;9.60;;;;;;;;;;5029875;28;20049;-72
2022/07/07 04:28:39;;;;;;;9.85;9.02;;;;;;;;;;5032265;28;20536;-72
2022/07/07 04:31:05;;;;;;;9.25;8.25;;;;;;;;;;5031363;28;20146;-73
2022/07/07 04:33:31;;;;;;;9.18;8.48;;;;;;;;;;5031116;28;20176;-74
2022/07/07 04:35:56;;;;;;;9.43;8.82;;;;;;;;;;5032666;28;20128;-73
2022/07/07 04:38:22;;;;;;;10.13;9.02;;;;;;;;;;5031042;28;20033;-72
2022/07/07 04:40:48;;;;;;;9.80;8.95;;;;;;;;;;5032382;28;20409;-75
2022/07/07 04:43:14;;;;;;;16.73;9.35;;;;;;;;;;5032238;28;20048;-74
2022/07/07 04:45:40;;;;;;;9.52;8.65;;;;;;;;;;5030214;28;20045;-73
2022/07/07 04:48:06;;;;;;;9.65;8.70;;;;;;;;;;5031835;28;20513;-73
2022/07/07 04:50:32;;;;;;;9.57;8.88;;;;;;;;;;5031740;28;20132;-73
2022/07/07 04:52:58;;;;;;;13.77;8.85;;;;;;;;;;5031809;28;20140;-73
2022/07/07 04:55:24;;;;;;;8.80;8.00;;;;;;;;;;5031852;28;20540;-73
2022/07/07 04:57:50;;;;;;;9.55;8.65;;;;;;;;;;5031674;28;20046;-73
2022/07/07 05:00:16;;;;;;;9.65;8.70;;;;;;;;;;5030417;28;20038;-74
2022/07/07 05:02:42;;;;;;;8.40;7.80;;;;;;;;;;5031682;28;20128;-74
2022/07/07 05:05:08;;;;;;;8.82;7.90;;;;;;;;;;5031834;28;20125;-73
2022/07/07 05:07:34;;;;;;;11.68;8.02;;;;;;;;;;5031629;28;20045;-76
2022/07/07 05:10:00;;;;;;;9.50;8.52;;;;;;;;;;5031684;28;20452;-74
2022/07/07 05:12:25;;;;;;;11.32;10.25;;;;;;;;;;5030429;28;20073;-74
2022/07/07 05:14:52;;;;;;;10.15;9.25;;;;;;;;;;5031600;28;20033;-74
2022/07/07 05:17:18;;;;;;;9.98;8.98;;;;;;;;;;5031662;28;20103;-74
2022/07/07 05:19:44;;;;;;;8.85;8.00;;;;;;;;;;5030740;28;20042;-73
2022/07/07 05:22:09;;;;;;;8.77;8.02;;;;;;;;;;5031817;28;20528;-72
2022/07/07 05:24:35;;;;;;;8.95;8.05;;;;;;;;;;5030954;28;20628;-73
2022/07/07 05:27:01;;;;;;;11.32;8.73;;;;;;;;;;5031536;28;20123;-73
2022/07/07 05:29:27;;;;;;;8.43;7.78;;;;;;;;;;5031282;28;20071;-73
2022/07/07 05:31:53;;;;;;;20.35;9.40;;;;;;;;;;5031315;28;20139;-74
2022/07/07 05:34:19;;;;;;;10.13;8.50;;;;;;;;;;5031244;28;20149;-73
2022/07/07 05:36:45;;;;;;;8.65;8.02;;;;;;;;;;5029899;28;20046;-74
2022/07/07 05:39:14;;;;;;;15.13;7.90;;;;;;;;;;5031246;28;20049;-73
2022/07/07 05:41:40;;;;;;;8.93;8.13;;;;;;;;;;5031006;28;20531;-73
2022/07/07 05:44:06;;;;;;;12.50;8.30;;;;;;;;;;5031191;28;20111;-74
2022/07/07 05:46:32;;;;;;;11.60;8.43;;;;;;;;;;5030946;28;20034;-74
2022/07/07 05:48:58;;;;;;;8.90;8.23;;;;;;;;;;5030599;28;20053;-74
2022/07/07 05:51:23;;;;;;;11.80;8.90;;;;;;;;;;5031062;28;20056;-74
2022/07/07 05:53:49;;;;;;;8.57;7.97;;;;;;;;;;5030717;28;20121;-73
2022/07/07 05:56:15;;;;;;;10.77;9.70;;;;;;;;;;5030843;28;20045;-73
2022/07/07 05:58:41;;;;;;;9.27;8.60;;;;;;;;;;5029206;28;20049;-74
2022/07/07 06:01:07;;;;;;;9.50;8.00;;;;;;;;;;5029796;28;20037;-72
2022/07/07 06:03:33;;;;;;;8.85;8.10;;;;;;;;;;5030755;28;20124;-73
2022/07/07 06:05:59;;;;;;;8.30;7.38;;;;;;;;;;5030721;28;20045;-73
2022/07/07 06:08:26;;;;;;;10.25;7.00;;;;;;;;;;5030524;28;20529;-73
2022/07/07 06:10:53;;;;;;;8.70;7.38;;;;;;;;;;5030466;28;20056;-74
2022/07/07 06:13:19;;;;;;;8.73;7.70;;;;;;;;;;5028747;28;20196;-73
2022/07/07 06:15:45;;;;;;;8.85;8.15;;;;;;;;;;5029025;28;20148;-73
2022/07/07 06:18:10;;;;;;;7.78;7.18;;;;;;;;;;5030909;28;20124;-74
2022/07/07 06:20:36;;;;;;;9.27;8.10;;;;;;;;;;5030689;28;20034;-74
2022/07/07 06:23:02;;;;;;;8.70;7.78;;;;;;;;;;5030470;28;20045;-74
2022/07/07 06:25:28;;;;;;;8.50;7.80;;;;;;;;;;5030264;28;20116;-75
2022/07/07 06:27:54;;;;;;;12.15;8.05;;;;;;;;;;5030174;28;20049;-73
2022/07/07 06:30:20;;;;;;;8.82;8.23;;;;;;;;;;5029434;28;20572;-74
2022/07/07 06:32:46;;;;;;;10.25;8.05;;;;;;;;;;5030048;28;20132;-74
2022/07/07 06:35:12;;;;;;;12.07;8.07;;;;;;;;;;5030208;28;20037;-75
2022/07/07 06:37:39;;;;;;;8.50;7.57;;;;;;;;;;5012795;28;20040;-74
2022/07/07 06:40:05;;;;;;;8.35;7.32;;;;;;;;;;5030210;28;20118;-74
2022/07/07 06:42:31;;;;;;;8.20;7.60;;;;;;;;;;5030073;28;20037;-74
2022/07/07 06:45:05;;;;;;;8.20;7.65;;;;;;;;;;5012503;28;20497;-73
2022/07/07 06:47:31;;;;;;;10.68;7.40;;;;;;;;;;5030109;28;20067;-73
2022/07/07 06:49:56;;;;;;;8.23;7.53;;;;;;;;;;5029791;28;20053;-73
2022/07/07 06:52:22;;;;;;;11.35;7.72;;;;;;;;;;5030347;28;20068;-73
2022/07/07 06:54:48;;;;;;;16.83;7.55;;;;;;;;;;5029832;28;20076;-71
2022/07/07 06:57:15;;;;;;;10.43;7.93;;;;;;;;;;5030346;28;20042;-73
2022/07/07 06:59:40;;;;;;;8.93;8.13;;;;;;;;;;5029801;28;20045;-73
2022/07/07 07:02:06;;;;;;;8.15;7.38;;;;;;;;;;5030692;28;20099;-73
2022/07/07 07:04:33;;;;;;;9.38;8.00;;;;;;;;;;5029893;28;20429;-74
2022/07/07 07:06:59;;;;;;;9.25;7.55;;;;;;;;;;5034825;28;20046;-73
2022/07/07 07:09:25;;;;;;;8.02;6.95;;;;;;;;;;5015987;28;20528;-74
2022/07/07 07:11:51;;;;;;;13.30;6.97;;;;;;;;;;5031407;28;20049;-73
2022/07/07 07:14:17;;;;;;;13.60;7.40;;;;;;;;;;5030476;28;20047;-74
2022/07/07 07:16:43;;;;;;;7.25;6.53;;;;;;;;;;5029679;28;20045;-74
2022/07/07 07:19:09;;;;;;;10.68;7.35;;;;;;;;;;5029502;28;20033;-73
2022/07/07 07:21:35;;;;;;;8.00;6.80;;;;;;;;;;5029469;28;20049;-73
2022/07/07 07:24:01;;;;;;;8.18;7.47;;;;;;;;;;5029371;28;20099;-73
2022/07/07 07:26:27;;;;;;;9.52;6.50;;;;;;;;;;5029219;28;20537;-74
2022/07/07 07:28:53;;;;;;;8.13;7.18;;;;;;;;;;5029035;28;20128;-74
2022/07/07 07:31:19;;;;;;;10.85;7.72;;;;;;;;;;5029508;28;20544;-74
2022/07/07 07:33:47;;;;;;;8.15;7.18;;;;;;;;;;5028978;28;20045;-74
2022/07/07 07:36:13;;;;;;;9.75;7.35;;;;;;;;;;5029354;28;20065;-73
2022/07/07 07:38:39;;;;;;;7.95;7.25;;;;;;;;;;5029172;28;20052;-72
2022/07/07 07:41:05;;;;;;;8.38;7.57;;;;;;;;;;5011890;28;20045;-74
2022/07/07 07:43:31;;;;;;;8.02;7.43;;;;;;;;;;5033283;28;20128;-73
2022/07/07 07:45:57;;;;;;;11.25;7.90;;;;;;;;;;4999300;28;20128;-73
2022/07/07 07:48:23;;;;;;;9.45;8.65;;;;;;;;;;5033344;28;20072;-73
2022/07/07 07:50:49;;;;;;;9.65;8.68;;;;;;;;;;5033068;28;20135;-75
2022/07/07 07:53:15;;;;;;;9.40;8.50;;;;;;;;;;5015494;28;20378;-74
2022/07/07 07:55:41;;;;;;;9.20;8.40;;;;;;;;;;5033068;28;20494;-73
2022/07/07 07:58:07;;;;;;;9.10;8.40;;;;;;;;;;5032918;28;20041;-73
2022/07/07 08:00:33;;;;;;;10.10;9.10;;;;;;;;;;5033023;28;20673;-73
2022/07/07 08:02:59;;;;;;;9.80;8.32;;;;;;;;;;5033032;28;20045;-75
2022/07/07 08:05:26;;;;;;;10.23;9.20;;;;;;;;;;5033781;28;20052;-75
2022/07/07 08:07:52;;;;;;;9.60;8.60;;;;;;;;;;5033791;28;20088;-74
2022/07/07 08:10:18;;;;;;;9.90;8.90;;;;;;;;;;5032856;28;20049;-74
2022/07/07 08:12:44;;;;;;;9.40;7.88;;;;;;;;;;5033037;28;20505;-74
2022/07/07 08:15:10;;;;;;;8.98;7.95;;;;;;;;;;5032902;28;20045;-73
2022/07/07 08:17:36;;;;;;;10.85;9.75;;;;;;;;;;5032834;28;20051;-74
2022/07/07 08:20:03;;;;;;;10.70;8.98;;;;;;;;;;5014736;28;20037;-74
2022/07/07 08:22:29;;;;;;;17.58;8.85;;;;;;;;;;5032831;28;20041;-73
2022/07/07 08:24:55;;;;;;;9.90;9.00;;;;;;;;;;5032248;28;20045;-72
2022/07/07 08:27:22;;;;;;;11.32;8.52;;;;;;;;;;5032712;28;20417;-74
2022/07/07 08:29:49;;;;;;;10.80;9.85;;;;;;;;;;5032210;28;20480;-74
2022/07/07 08:32:15;;;;;;;11.07;10.07;;;;;;;;;;5032697;28;20046;-73
2022/07/07 08:34:41;;;;;;;11.35;10.02;;;;;;;;;;4998574;28;20072;-74
2022/07/07 08:37:07;;;;;;;11.73;10.35;;;;;;;;;;5032361;28;20521;-73
2022/07/07 08:39:33;;;;;;;14.45;11.05;;;;;;;;;;5032275;28;20128;-73
2022/07/07 08:41:59;;;;;;;12.35;9.27;;;;;;;;;;5014561;28;20505;-73
2022/07/07 08:44:25;;;;;;;11.05;9.52;;;;;;;;;;5032020;28;20029;-73
2022/07/07 08:46:51;;;;;;;11.25;10.23;;;;;;;;;;5032090;28;20056;-75
2022/07/07 08:49:18;;;;;;;9.85;8.93;;;;;;;;;;5032005;28;20131;-74
2022/07/07 08:51:44;;;;;;;16.08;10.23;;;;;;;;;;5032195;28;20053;-74
2022/07/07 08:54:10;;;;;;;10.25;9.25;;;;;;;;;;5031201;28;20115;-73
2022/07/07 08:56:38;;;;;;;9.23;8.13;;;;;;;;;;5014541;28;20048;-74
2022/07/07 08:59:08;;;;;;;11.30;9.00;;;;;;;;;;5031705;28;20480;-73
2022/07/07 09:01:34;;;;;;;9.10;8.45;;;;;;;;;;5031815;28;20481;-74
2022/07/07 09:04:00;;;;;;;13.85;9.02;;;;;;;;;;5031580;28;20080;-73
2022/07/07 09:06:26;;;;;;;10.63;9.50;;;;;;;;;;5032051;28;20069;-74
2022/07/07 09:08:52;;;;;;;9.45;8.48;;;;;;;;;;5031508;28;20165;-74
2022/07/07 09:11:27;;;;;;;8.68;7.80;;;;;;;;;;5014305;28;20045;-74
2022/07/07 09:14:12;;;;;;;9.35;8.38;;;;;;;;;;5031556;28;20628;-73
2022/07/07 09:16:38;;;;;;;9.65;8.75;;;;;;;;;;5031764;28;20045;-74
2022/07/07 09:19:20;;;;;;;11.95;8.40;;;;;;;;;;5031288;28;20067;-73
2022/07/07 09:21:46;;;;;;;8.93;8.07;;;;;;;;;;5031830;28;20371;-74
2022/07/07 09:24:12;;;;;;;15.07;8.73;;;;;;;;;;5013873;28;20075;-75
2022/07/07 09:26:42;;;;;;;9.57;8.57;;;;;;;;;;5031487;28;20065;-72
2022/07/07 09:29:09;;;;;;;9.18;8.48;;;;;;;;;;5030993;28;20157;-74
2022/07/07 09:31:51;;;;;;;10.55;8.10;;;;;;;;;;5031453;28;20107;-74
2022/07/07 09:34:17;;;;;;;12.35;8.57;;;;;;;;;;5031461;28;20414;-74
2022/07/07 09:39:49;;;;;;;10.48;8.13;;;;;;;;;;5013574;28;20046;-73
2022/07/07 09:42:21;;;;;;;9.98;9.02;;;;;;;;;;5031379;28;20041;-73
2022/07/07 09:44:48;;;;;;;9.35;8.52;;;;;;;;;;5031182;28;20091;-73
2022/07/07 09:47:14;;;;;;;9.40;8.57;;;;;;;;;;5031037;28;20053;-73
2022/07/07 09:49:43;;;;;;;9.38;8.57;;;;;;;;;;5012993;28;20497;-73
2022/07/07 09:52:09;;;;;;;;;;;;;;;;;;5031273;28;20124;-72
2022/07/07 09:54:40;;;;;;;13.13;8.13;;;;;;;;;;5030975;28;20011;-73
2022/07/07 09:57:06;;;;;;;11.75;8.70;;;;;;;;;;4998034;28;20049;-73
2022/07/07 09:59:32;;;;;;;8.68;8.05;;;;;;;;;;5031299;28;20083;-74
2022/07/07 10:01:58;;;;;;;9.32;8.48;;;;;;;;;;5013646;28;20456;-72
2022/07/07 10:04:25;;;;;;;9.65;8.75;;;;;;;;;;5013857;28;20512;-74
2022/07/07 10:06:50;;;;;;;8.75;7.97;;;;;;;;;;5030918;28;20053;-74
2022/07/07 10:09:17;;;;;;;9.70;8.73;;;;;;;;;;5013315;28;20085;-73
2022/07/07 10:11:44;;;;;;;8.73;8.02;;;;;;;;;;5031827;28;20467;-73
2022/07/07 10:14:13;;;;;;;9.68;8.20;;;;;;;;;;5018113;28;20041;-74
2022/07/07 10:16:39;;;;;;;8.77;7.88;;;;;;;;;;5035184;28;20041;-74
2022/07/07 10:19:05;;;;;;;9.40;8.50;;;;;;;;;;5031116;28;20128;-72
2022/07/07 10:21:31;;;;;;;12.40;8.02;;;;;;;;;;5014015;28;20044;-75
2022/07/07 10:23:57;;;;;;;8.77;8.18;;;;;;;;;;5014139;28;20050;-74
2022/07/07 10:26:37;;;;;;;9.05;8.25;;;;;;;;;;5031629;28;20046;-75
2022/07/07 10:29:03;;;;;;;9.20;8.40;;;;;;;;;;5013420;28;20055;-74
2022/07/07 10:31:29;;;;;;;8.95;8.07;;;;;;;;;;5031234;28;20049;-74
2022/07/07 10:34:04;;;;;;;8.30;7.80;;;;;;;;;;4997172;28;20121;-74
2022/07/07 10:36:48;;;;;;;12.65;8.40;;;;;;;;;;5013966;28;20037;-75
2022/07/07 10:39:14;;;;;;;8.63;7.72;;;;;;;;;;5012913;28;20124;-73
2022/07/07 10:41:40;;;;;;;12.27;9.00;;;;;;;;;;5031186;28;20058;-75
2022/07/07 10:44:09;;;;;;;9.57;8.63;;;;;;;;;;4997024;28;20517;-73
2022/07/07 10:46:35;;;;;;;11.13;9.63;;;;;;;;;;5013330;28;20528;-73
2022/07/07 10:49:08;;;;;;;9.75;8.80;;;;;;;;;;5030966;28;20505;-75
2022/07/07 10:51:33;;;;;;;22.40;8.52;;;;;;;;;;5030745;28;20406;-76
2022/07/07 10:54:01;;;;;;;9.65;8.65;;;;;;;;;;4996839;28;20044;-73
2022/07/07 10:56:27;;;;;;;9.75;9.10;;;;;;;;;;5031076;28;20472;-74
2022/07/07 10:58:53;;;;;;;11.45;9.20;;;;;;;;;;5012578;28;20042;-73
2022/07/07 11:01:19;;;;;;;11.45;9.60;;;;;;;;;;5030594;28;20044;-73
2022/07/07 11:03:45;;;;;;;10.55;9.57;;;;;;;;;;5012641;28;20425;-74
2022/07/07 11:06:11;;;;;;;11.05;9.80;;;;;;;;;;5030059;28;20037;-73
2022/07/07 11:08:38;;;;;;;10.05;9.25;;;;;;;;;;5029953;28;20540;-74
2022/07/07 11:11:04;;;;;;;11.90;9.40;;;;;;;;;;5012703;28;20148;-74
2022/07/07 11:13:34;;;;;;;10.60;9.63;;;;;;;;;;5030619;28;20129;-73
2022/07/07 11:16:13;;;;;;;11.55;8.73;;;;;;;;;;5012237;28;20056;-74
2022/07/07 11:18:40;;;;;;;15.10;10.07;;;;;;;;;;5012672;28;20088;-72
2022/07/07 11:21:06;;;;;;;11.32;10.18;;;;;;;;;;5030573;28;20038;-74
2022/07/07 11:23:47;;;;;;;16.95;10.57;;;;;;;;;;5013636;28;20049;-73
2022/07/07 11:26:17;;;;;;;11.52;10.40;;;;;;;;;;5012632;28;20079;-74
2022/07/07 11:28:43;;;;;;;11.65;10.65;;;;;;;;;;5032021;28;20057;-75
2022/07/07 11:31:09;;;;;;;16.95;10.60;;;;;;;;;;5030353;28;20057;-74
2022/07/07 11:33:35;;;;;;;12.38;9.95;;;;;;;;;;5030457;28;20136;-76
2022/07/07 11:36:17;;;;;;;11.40;10.27;;;;;;;;;;5030748;28;20128;-74
2022/07/07 11:38:44;;;;;;;13.40;11.32;;;;;;;;;;5030891;28;20076;-74
2022/07/07 11:41:09;;;;;;;13.15;11.95;;;;;;;;;;5030723;28;20594;-74
2022/07/07 11:43:35;;;;;;;13.82;12.20;;;;;;;;;;5031007;28;20049;-73
2022/07/07 11:46:01;;;;;;;13.27;11.95;;;;;;;;;;5030161;28;20044;-75
2022/07/07 11:48:32;;;;;;;13.50;12.20;;;;;;;;;;5014203;28;20427;-74
2022/07/07 11:50:57;;;;;;;13.57;12.30;;;;;;;;;;5030305;28;20080;-74
2022/07/07 11:53:24;;;;;;;18.65;13.73;;;;;;;;;;4996848;28;20567;-74
2022/07/07 11:55:50;;;;;;;19.25;15.38;;;;;;;;;;5030589;28;20420;-74
2022/07/07 11:58:16;;;;;;;17.95;16.17;;;;;;;;;;5013906;28;20503;-75
2022/07/07 12:00:42;;;;;;;22.38;15.82;;;;;;;;;;5012800;28;20541;-75
2022/07/07 12:03:08;;;;;;;19.08;16.65;;;;;;;;;;5031306;28;20136;-75
2022/07/07 12:05:34;;;;;;;17.40;15.65;;;;;;;;;;5012964;28;20045;-75
2022/07/07 12:08:05;;;;;;;18.50;16.67;;;;;;;;;;5030803;28;20041;-75
2022/07/07 12:10:40;;;;;;;18.80;16.80;;;;;;;;;;5030735;28;20042;-75
2022/07/07 12:13:07;;;;;;;18.15;16.27;;;;;;;;;;5030702;28;20120;-74
2022/07/07 12:15:34;;;;;;;21.45;16.33;;;;;;;;;;5030268;28;20041;-77
2022/07/07 12:18:01;;;;;;;18.58;16.58;;;;;;;;;;5012661;28;20060;-75
2022/07/07 12:20:27;;;;;;;18.83;16.88;;;;;;;;;;5012808;28;20058;-73
2022/07/07 12:22:54;;;;;;;18.92;16.90;;;;;;;;;;5030152;28;20048;-75
2022/07/07 12:25:20;;;;;;;18.95;16.88;;;;;;;;;;5029525;28;20053;-75
2022/07/07 12:27:55;;;;;;;23.65;16.00;;;;;;;;;;5030501;28;20120;-75
2022/07/07 12:30:21;;;;;;;18.15;16.17;;;;;;;;;;5034186;28;20049;-75
2022/07/07 12:32:47;;;;;;;20.40;16.00;;;;;;;;;;5033845;28;20041;-76
2022/07/07 12:35:26;;;;;;;22.88;16.50;;;;;;;;;;5034123;28;20041;-74
2022/07/07 12:37:52;;;;;;;19.10;16.83;;;;;;;;;;5033262;28;20045;-75
2022/07/07 12:40:18;;;;;;;14.40;12.95;;;;;;;;;;5032386;28;20041;-75
2022/07/07 12:42:45;;;;;;;20.05;17.25;;;;;;;;;;5032572;28;20076;-76
2022/07/07 12:45:11;;;;;;;18.88;17.10;;;;;;;;;;5014767;28;20632;-74
2022/07/07 12:47:44;;;;;;;20.02;16.83;;;;;;;;;;5032312;28;20094;-76
2022/07/07 12:50:10;;;;;;;20.05;15.90;;;;;;;;;;5014353;28;20119;-77
2022/07/07 12:52:36;;;;;;;21.48;15.52;;;;;;;;;;5032216;28;20047;-77
2022/07/07 12:55:07;;;;;;;17.55;15.27;;;;;;;;;;4997953;28;20517;-75
2022/07/07 12:57:33;;;;;;;16.88;15.15;;;;;;;;;;4998115;28;20575;-75
2022/07/07 12:59:59;;;;;;;17.13;15.40;;;;;;;;;;5032127;28;20072;-74
2022/07/07 13:02:25;;;;;;;16.42;14.73;;;;;;;;;;4998094;28;20087;-75
2022/07/07 13:04:53;;;;;;;16.98;14.98;;;;;;;;;;5031674;28;20131;-75
2022/07/07 13:07:22;;;;;;;18.92;14.00;;;;;;;;;;5031615;28;20044;-74
2022/07/07 13:09:48;;;;;;;19.30;14.27;;;;;;;;;;5031826;28;20049;-74
2022/07/07 13:12:14;;;;;;;16.17;13.43;;;;;;;;;;5031881;28;20045;-77
2022/07/07 13:14:40;;;;;;;17.05;13.20;;;;;;;;;;5031709;28;20128;-75
2022/07/07 13:17:06;;;;;;;17.52;14.02;;;;;;;;;;5013798;28;20180;-76
2022/07/07 13:19:32;;;;;;;15.02;13.70;;;;;;;;;;5032500;28;20060;-74
2022/07/07 13:21:58;;;;;;;16.77;13.63;;;;;;;;;;5035704;28;20056;-74
2022/07/07 13:24:24;;;;;;;16.88;14.48;;;;;;;;;;5038055;28;20585;-75
2022/07/07 13:26:50;;;;;;;20.92;14.45;;;;;;;;;;5020688;28;20053;-74
2022/07/07 13:29:18;;;;;;;23.35;13.65;;;;;;;;;;5041506;28;20068;-75
2022/07/07 13:31:44;;;;;;;15.57;13.95;;;;;;;;;;5015432;28;20057;-74
2022/07/07 13:34:10;;;;;;;15.73;14.23;;;;;;;;;;5031409;28;20501;-75
2022/07/07 13:36:36;;;;;;;14.65;13.18;;;;;;;;;;5031187;28;20053;-76
2022/07/07 13:39:02;;;;;;;13.68;12.23;;;;;;;;;;5013615;28;20045;-75
2022/07/07 13:41:28;;;;;;;15.68;12.82;;;;;;;;;;5013500;28;20049;-75
2022/07/07 13:43:54;;;;;;;15.38;12.15;;;;;;;;;;5030960;28;20131;-74
2022/07/07 13:46:20;;;;;;;15.00;11.55;;;;;;;;;;5030828;28;20140;-74
2022/07/07 13:48:46;;;;;;;17.23;11.60;;;;;;;;;;5030923;28;20528;-73
2022/07/07 13:51:12;;;;;;;12.98;11.43;;;;;;;;;;5030562;28;20068;-73
2022/07/07 13:53:38;;;;;;;20.77;11.18;;;;;;;;;;5030617;28;20041;-75
2022/07/07 13:56:04;;;;;;;12.73;9.93;;;;;;;;;;5030451;28;20054;-73
2022/07/07 13:58:30;;;;;;;11.68;9.57;;;;;;;;;;5030748;28;20109;-73
2022/07/07 14:00:56;;;;;;;10.05;8.93;;;;;;;;;;5030180;28;20041;-73
2022/07/07 14:03:22;;;;;;;10.95;9.85;;;;;;;;;;5030476;28;20045;-74
2022/07/07 14:05:48;;;;;;;16.60;10.02;;;;;;;;;;5012590;28;20041;-74
2022/07/07 14:08:14;;;;;;;13.43;10.25;;;;;;;;;;5030262;28;20493;-74
2022/07/07 14:10:40;;;;;;;16.85;9.73;;;;;;;;;;5030460;28;20053;-73
2022/07/07 14:13:06;;;;;;;11.25;10.20;;;;;;;;;;5012704;28;20045;-74
2022/07/07 14:15:32;;;;;;;15.85;10.60;;;;;;;;;;5012791;28;20072;-74
2022/07/07 14:17:57;;;;;;;12.73;10.45;;;;;;;;;;5030647;28;20049;-73
2022/07/07 14:20:24;;;;;;;14.40;9.52;;;;;;;;;;5029924;28;20061;-74
2022/07/07 14:22:50;;;;;;;12.07;8.45;;;;;;;;;;5030137;28;20124;-74
2022/07/07 14:25:17;;;;;;;10.52;7.78;;;;;;;;;;5029845;28;20077;-73
2022/07/07 14:27:43;;;;;;;6.97;6.05;;;;;;;;;;5012733;28;20045;-74